CheckWX is a tool to help pilots better visualize weather data.  It is not intended as a substitute for an official pre-flight weather briefing.

12:07:53 UTC

6I2 METAR
Lebanon Springfield-George Hoerter Field Airport
Springfield, Kentucky, USA
Current

33 mins ago

K6I2 281135Z AUTO 00000KT 10SM OVC013 00/M02 A3008 RMK AO2
Observed
Jan-28 @ 11:35 UTC
Visibility
10 SM
Flight Rules
MVFR
Cloud Levels
  • Overcast at 1,300' AGL
Temperature
C / 32°F
Dewpoint
-2°C / 28°F
Humidity
87%
Altimeter
30.08" Hg
Pressure
1018.62 hPa
Previous

53 mins ago

K6I2 281115Z AUTO 34005KT 10SM OVC013 00/M01 A3008 RMK AO2
Observed
Jan-28 @ 11:15 UTC
Wind
  • 340° at 5 KTS
Visibility
10 SM
Flight Rules
MVFR
Cloud Levels
  • Overcast at 1,300' AGL
Temperature
C / 32°F
Dewpoint
-1°C / 30°F
Humidity
93%
Altimeter
30.08" Hg
Pressure
1018.62 hPa
Previous

1 hour ago

K6I2 281055Z AUTO 33004KT 10SM OVC013 00/M01 A3007 RMK AO2
Observed
Jan-28 @ 10:55 UTC
Wind
  • 330° at 4 KTS
Visibility
10 SM
Flight Rules
MVFR
Cloud Levels
  • Overcast at 1,300' AGL
Temperature
C / 32°F
Dewpoint
-1°C / 30°F
Humidity
93%
Altimeter
30.07" Hg
Pressure
1018.32 hPa